createdAt,value
2019-04-06T00:01:02.873Z,7.41
2019-04-06T00:03:32.495Z,7.44
2019-04-06T00:06:01.970Z,7.35
2019-04-06T00:08:31.362Z,7.32
2019-04-06T00:11:01.031Z,7.31
2019-04-06T00:13:30.556Z,7.31
2019-04-06T00:15:59.953Z,7.34
2019-04-06T00:18:29.479Z,7.34
2019-04-06T00:20:58.974Z,7.27
2019-04-06T00:23:28.454Z,7.24
2019-04-06T00:25:57.868Z,7.24
2019-04-06T00:28:27.256Z,7.21
2019-04-06T00:31:04.453Z,7.13
2019-04-06T00:33:33.942Z,7.15
2019-04-06T00:36:03.353Z,7.17
2019-04-06T00:38:33.937Z,7.13
2019-04-06T00:41:03.583Z,7.08
2019-04-06T00:43:33.080Z,7.05
2019-04-06T00:46:02.486Z,7.02
2019-04-06T00:48:31.869Z,7.03
2019-04-06T00:51:01.387Z,6.94
2019-04-06T00:53:30.878Z,6.95
2019-04-06T00:56:00.254Z,6.88
2019-04-06T00:58:29.736Z,6.91
2019-04-06T01:00:59.143Z,6.94
2019-04-06T01:03:28.544Z,6.91
2019-04-06T01:05:58.076Z,6.86
2019-04-06T01:08:27.649Z,6.88
2019-04-06T01:10:57.434Z,6.84
2019-04-06T01:13:26.870Z,6.77
2019-04-06T01:15:56.341Z,6.77
2019-04-06T01:18:25.835Z,6.77
2019-04-06T01:20:55.268Z,6.76
2019-04-06T01:23:24.781Z,6.75
2019-04-06T01:25:54.293Z,6.73
2019-04-06T01:28:23.783Z,6.68
2019-04-06T01:30:53.359Z,6.68
2019-04-06T01:33:22.845Z,6.60
2019-04-06T01:35:52.337Z,6.65
2019-04-06T01:38:21.825Z,6.67
2019-04-06T01:40:51.316Z,6.62
2019-04-06T01:43:20.790Z,6.71
2019-04-06T01:45:50.224Z,6.70
2019-04-06T01:48:19.599Z,6.66
2019-04-06T01:50:49.089Z,6.66
2019-04-06T01:53:19.170Z,6.66
2019-04-06T01:55:48.586Z,6.66
2019-04-06T01:58:17.985Z,6.67
2019-04-06T02:01:06.453Z,6.74
2019-04-06T02:03:35.965Z,6.72
2019-04-06T02:06:05.483Z,6.80
2019-04-06T02:08:34.937Z,6.80
2019-04-06T02:11:04.652Z,6.86
2019-04-06T02:13:34.186Z,6.94
2019-04-06T02:16:03.572Z,7.04
2019-04-06T02:18:33.054Z,7.08
2019-04-06T02:21:02.461Z,7.11
2019-04-06T02:23:31.894Z,7.13
2019-04-06T02:26:02.490Z,7.16
2019-04-06T02:28:31.983Z,7.25
2019-04-06T02:31:14.476Z,7.32
2019-04-06T02:34:05.642Z,7.37
2019-04-06T02:36:47.878Z,7.39
2019-04-06T02:39:30.573Z,7.45
2019-04-06T02:42:16.787Z,7.46
2019-04-06T02:44:46.217Z,7.51
2019-04-06T02:47:15.696Z,7.59
2019-04-06T02:49:45.211Z,7.63
2019-04-06T02:52:14.815Z,7.67
2019-04-06T02:54:44.157Z,7.71
2019-04-06T02:57:13.688Z,7.70
2019-04-06T02:59:43.073Z,7.75
2019-04-06T03:02:12.721Z,7.79
2019-04-06T03:04:42.389Z,7.80
2019-04-06T03:07:11.769Z,7.78
2019-04-06T03:09:41.235Z,7.84
2019-04-06T03:12:11.020Z,7.82
2019-04-06T03:14:44.038Z,7.80
2019-04-06T03:17:11.775Z,7.81
2019-04-06T03:19:41.221Z,7.83
2019-04-06T03:22:10.712Z,7.81
2019-04-06T03:24:40.276Z,7.81
2019-04-06T03:27:09.886Z,7.81
2019-04-06T03:29:39.252Z,7.79
2019-04-06T03:32:08.735Z,7.83
2019-04-06T03:34:38.266Z,7.89
2019-04-06T03:37:07.665Z,7.97
2019-04-06T03:39:37.152Z,7.93
2019-04-06T03:42:06.588Z,7.90
2019-04-06T03:44:35.963Z,7.96
2019-04-06T03:47:07.732Z,7.97
2019-04-06T03:49:37.399Z,8.01
2019-04-06T03:52:06.782Z,8.00
2019-04-06T03:54:36.220Z,8.03
2019-04-06T03:57:14.646Z,8.05
2019-04-06T03:59:37.112Z,8.05
2019-04-06T04:02:06.498Z,8.05
2019-04-06T04:04:35.922Z,8.05
2019-04-06T04:07:05.575Z,8.06
2019-04-06T04:09:35.145Z,8.07
2019-04-06T04:12:04.720Z,8.03
2019-04-06T04:14:34.154Z,8.05
2019-04-06T04:17:03.977Z,8.12
2019-04-06T04:19:33.554Z,8.17
2019-04-06T04:22:03.027Z,8.16
2019-04-06T04:24:32.545Z,8.22
2019-04-06T04:27:02.009Z,8.24
2019-04-06T04:29:31.531Z,8.28
2019-04-06T04:32:01.158Z,8.03
2019-04-06T04:34:30.910Z,8.07
2019-04-06T04:37:00.303Z,8.15
2019-04-06T04:39:29.660Z,8.18
2019-04-06T04:41:59.330Z,8.24
2019-04-06T04:44:30.057Z,8.32
2019-04-06T04:47:01.068Z,8.36
2019-04-06T04:49:30.482Z,8.38
2019-04-06T04:51:59.951Z,8.39
2019-04-06T04:54:29.479Z,8.45
2019-04-06T04:56:58.922Z,8.49
2019-04-06T04:59:28.388Z,8.53
2019-04-06T05:01:57.766Z,8.54
2019-04-06T05:04:27.207Z,8.54
2019-04-06T05:06:56.695Z,8.58
2019-04-06T05:09:26.224Z,8.65
2019-04-06T05:11:55.681Z,8.67
2019-04-06T05:15:14.460Z,8.74
2019-04-06T05:17:43.988Z,8.81
2019-04-06T05:20:13.684Z,8.91
2019-04-06T05:22:43.072Z,8.98
2019-04-06T05:25:12.648Z,9.05
2019-04-06T05:27:51.282Z,9.13
2019-04-06T05:30:14.347Z,9.19
2019-04-06T05:32:43.939Z,9.20
2019-04-06T05:35:13.558Z,9.27
2019-04-06T05:37:43.023Z,9.28
2019-04-06T05:40:12.678Z,9.33
2019-04-06T05:42:42.044Z,9.40
2019-04-06T05:45:11.703Z,9.44
2019-04-06T05:47:41.330Z,9.46
2019-04-06T05:50:10.881Z,9.44
2019-04-06T05:52:40.249Z,9.54
2019-04-06T05:55:10.167Z,9.62
2019-04-06T05:57:39.651Z,9.65
2019-04-06T06:00:10.587Z,9.71
2019-04-06T06:02:41.757Z,9.75
2019-04-06T06:05:12.841Z,9.83
2019-04-06T06:07:42.321Z,9.89
2019-04-06T06:10:12.176Z,9.98
2019-04-06T06:12:42.689Z,10.00
2019-04-06T06:15:12.272Z,10.02
2019-04-06T06:17:41.797Z,10.13
2019-04-06T06:20:11.648Z,10.25
2019-04-06T06:22:41.318Z,10.24
2019-04-06T06:25:11.104Z,10.03
2019-04-06T06:27:40.512Z,9.90
2019-04-06T06:30:10.216Z,10.17
2019-04-06T06:32:39.754Z,10.38
2019-04-06T06:35:09.494Z,10.57
2019-04-06T06:37:38.887Z,10.66
2019-04-06T06:40:08.828Z,10.80
2019-04-06T06:42:38.392Z,10.99
2019-04-06T06:45:08.660Z,11.18
2019-04-06T06:47:38.293Z,10.82
2019-04-06T06:50:07.983Z,10.40
2019-04-06T06:52:37.499Z,10.59
2019-04-06T06:55:07.370Z,10.58
2019-04-06T06:57:36.759Z,10.79
2019-04-06T07:00:07.996Z,11.03
2019-04-06T07:02:38.054Z,11.14
2019-04-06T07:05:08.143Z,10.96
2019-04-06T07:07:37.683Z,11.11
2019-04-06T07:10:08.114Z,11.03
2019-04-06T07:12:38.914Z,10.75
2019-04-06T07:15:09.284Z,10.54
2019-04-06T07:17:38.984Z,10.67
2019-04-06T07:20:09.449Z,10.51
2019-04-06T07:22:38.882Z,10.36
2019-04-06T07:25:08.589Z,10.20
2019-04-06T07:27:38.195Z,10.40
2019-04-06T07:30:08.066Z,10.12
2019-04-06T07:32:37.550Z,10.65
2019-04-06T07:35:07.703Z,10.38
2019-04-06T07:37:37.200Z,10.42
2019-04-06T07:40:07.888Z,10.01
2019-04-06T07:42:37.419Z,9.87
2019-04-06T07:45:07.868Z,9.43
2019-04-06T07:47:37.364Z,9.20
2019-04-06T07:50:07.719Z,9.84
2019-04-06T07:52:37.392Z,9.77
2019-04-06T07:55:08.031Z,9.95
2019-04-06T07:57:37.464Z,10.02
2019-04-06T08:00:07.200Z,9.91
2019-04-06T08:02:36.863Z,10.52
2019-04-06T08:05:06.744Z,9.97
2019-04-06T08:07:36.606Z,9.84
2019-04-06T08:10:07.127Z,10.37
2019-04-06T08:12:36.936Z,10.64
2019-04-06T08:15:07.929Z,10.25
2019-04-06T08:17:37.596Z,10.39
2019-04-06T08:20:12.301Z,10.22
2019-04-06T08:22:41.773Z,10.10
2019-04-06T08:25:13.410Z,9.58
2019-04-06T08:27:43.015Z,10.13
2019-04-06T08:30:12.833Z,10.55
2019-04-06T08:32:42.221Z,11.06
2019-04-06T08:35:11.806Z,10.91
2019-04-06T08:37:41.396Z,10.63
2019-04-06T08:40:11.312Z,10.40
2019-04-06T08:42:41.935Z,10.45
2019-04-06T08:45:13.817Z,10.90
2019-04-06T08:47:43.241Z,10.75
2019-04-06T08:50:14.700Z,10.42
2019-04-06T08:52:45.621Z,10.70
2019-04-06T08:55:16.098Z,10.19
2019-04-06T08:57:49.631Z,10.17
2019-04-06T09:00:19.186Z,10.13
2019-04-06T09:02:48.736Z,10.78
2019-04-06T09:05:18.362Z,11.03
2019-04-06T09:07:48.107Z,11.46
2019-04-06T09:10:18.023Z,11.65
2019-04-06T09:12:47.637Z,10.82
2019-04-06T09:15:18.631Z,11.23
2019-04-06T09:17:48.842Z,11.07
2019-04-06T09:20:18.394Z,11.18
2019-04-06T09:22:51.004Z,11.61
2019-04-06T09:25:20.509Z,12.40
2019-04-06T09:27:50.120Z,12.61
2019-04-06T09:30:19.563Z,12.36
2019-04-06T09:32:49.086Z,12.10
2019-04-06T09:35:18.680Z,12.24
2019-04-06T09:37:48.095Z,12.82
2019-04-06T09:40:18.063Z,13.01
2019-04-06T09:42:47.510Z,12.08
2019-04-06T09:45:41.308Z,12.15
2019-04-06T09:48:32.589Z,12.06
2019-04-06T09:51:15.048Z,11.75
2019-04-06T09:54:07.623Z,12.79
2019-04-06T09:56:53.754Z,13.66
2019-04-06T09:59:48.032Z,13.52
2019-04-06T10:02:34.885Z,13.81
2019-04-06T10:05:22.518Z,14.09
2019-04-06T10:08:18.437Z,14.29
2019-04-06T10:11:10.062Z,14.47
2019-04-06T10:14:05.999Z,13.71
2019-04-06T10:16:53.201Z,13.56
2019-04-06T10:19:47.647Z,12.86
2019-04-06T10:22:23.653Z,12.70
2019-04-06T10:25:11.637Z,13.48
2019-04-06T10:28:03.744Z,12.98
2019-04-06T10:30:53.562Z,13.38
2019-04-06T10:33:47.305Z,13.20
2019-04-06T10:36:38.362Z,13.21
2019-04-06T10:39:29.680Z,13.39
2019-04-06T10:42:24.002Z,13.35
2019-04-06T10:45:02.966Z,12.45
2019-04-06T10:47:54.077Z,12.94
2019-04-06T10:50:54.891Z,13.13
2019-04-06T10:53:42.500Z,13.62
2019-04-06T10:56:29.804Z,14.05
2019-04-06T10:59:24.158Z,14.49
2019-04-06T11:02:15.234Z,14.84
2019-04-06T11:04:52.734Z,14.37
2019-04-06T11:07:36.109Z,13.72
2019-04-06T11:10:32.739Z,14.02
2019-04-06T11:13:10.850Z,13.72
2019-04-06T11:15:50.987Z,14.29
2019-04-06T11:18:34.521Z,14.78
2019-04-06T11:21:22.860Z,14.96
2019-04-06T11:24:11.688Z,15.05
2019-04-06T11:27:06.423Z,14.73
2019-04-06T11:29:48.152Z,13.93
2019-04-06T11:32:32.448Z,14.20
2019-04-06T11:35:29.632Z,14.60
2019-04-06T11:38:33.238Z,14.84
2019-04-06T11:41:20.092Z,14.51
2019-04-06T11:44:01.483Z,14.47
2019-04-06T11:47:05.628Z,14.61
2019-04-06T11:50:09.072Z,14.76
2019-04-06T11:52:49.746Z,14.96
2019-04-06T11:55:47.049Z,15.40
2019-04-06T11:58:30.978Z,15.27
2019-04-06T12:01:06.404Z,15.22
2019-04-06T12:03:53.474Z,15.38
2019-04-06T12:06:40.978Z,15.41
2019-04-06T12:09:25.169Z,15.08
2019-04-06T12:12:25.588Z,15.05
2019-04-06T12:15:20.418Z,15.00
2019-04-06T12:18:07.625Z,14.82
2019-04-06T12:20:55.081Z,15.23
2019-04-06T12:23:43.709Z,15.76
2019-04-06T12:26:41.613Z,15.97
2019-04-06T12:29:32.929Z,15.96
2019-04-06T12:32:20.152Z,16.10
2019-04-06T12:34:56.695Z,15.93
2019-04-06T12:37:57.456Z,15.84
2019-04-06T12:40:52.792Z,15.71
2019-04-06T12:43:46.948Z,15.73
2019-04-06T12:46:34.153Z,15.95
2019-04-06T12:49:11.185Z,16.29
2019-04-06T12:52:11.299Z,16.46
2019-04-06T12:55:00.143Z,16.62
2019-04-06T12:58:03.409Z,16.92
2019-04-06T13:00:53.099Z,17.11
2019-04-06T13:03:34.539Z,17.44
2019-04-06T13:06:12.490Z,17.29
2019-04-06T13:09:09.881Z,17.18
2019-04-06T13:11:56.560Z,17.16
2019-04-06T13:14:56.980Z,17.31
2019-04-06T13:17:48.291Z,17.31
2019-04-06T13:20:35.144Z,17.57
2019-04-06T13:23:22.811Z,17.57
2019-04-06T13:26:20.429Z,17.69
2019-04-06T13:29:14.762Z,17.70
2019-04-06T13:32:03.086Z,17.77
2019-04-06T13:34:47.676Z,17.83
2019-04-06T13:37:25.403Z,17.96
2019-04-06T13:40:28.704Z,18.01
2019-04-06T13:43:15.678Z,18.19
2019-04-06T13:45:57.807Z,18.48
2019-04-06T13:48:44.917Z,18.69
2019-04-06T13:51:39.063Z,18.98
2019-04-06T13:54:27.379Z,19.00
2019-04-06T13:57:06.465Z,19.14
2019-04-06T13:59:46.580Z,19.01
2019-04-06T14:02:40.240Z,19.05
2019-04-06T14:05:27.114Z,19.10
2019-04-06T14:08:16.699Z,19.38
2019-04-06T14:11:07.816Z,19.03
2019-04-06T14:14:08.546Z,18.24
2019-04-06T14:16:56.653Z,18.63
2019-04-06T14:19:48.340Z,18.54
2019-04-06T14:22:48.201Z,18.77
2019-04-06T14:25:39.252Z,19.07
2019-04-06T14:28:26.033Z,19.08
2019-04-06T14:31:09.259Z,18.80
2019-04-06T14:33:56.561Z,18.66
2019-04-06T14:36:35.278Z,18.75
2019-04-06T14:39:30.855Z,19.12
2019-04-06T14:42:13.359Z,19.30
2019-04-06T14:45:00.478Z,18.46
2019-04-06T14:47:49.353Z,18.60
2019-04-06T14:50:27.334Z,18.75
2019-04-06T14:53:20.210Z,18.91
2019-04-06T14:56:14.721Z,18.58
2019-04-06T14:59:06.946Z,18.29
2019-04-06T15:01:58.663Z,18.34
2019-04-06T15:04:42.628Z,18.24
2019-04-06T15:07:30.191Z,18.30
2019-04-06T15:10:24.671Z,18.35
2019-04-06T15:13:31.024Z,18.27
2019-04-06T15:16:22.565Z,17.88
2019-04-06T15:19:09.511Z,17.63
2019-04-06T15:22:00.720Z,17.39
2019-04-06T15:24:36.562Z,17.58
2019-04-06T15:27:27.162Z,17.67
2019-04-06T15:30:19.085Z,17.77
2019-04-06T15:33:14.775Z,17.53
2019-04-06T15:36:38.933Z,17.38
2019-04-06T15:39:29.096Z,17.38
2019-04-06T15:42:25.488Z,17.38
2019-04-06T15:45:30.168Z,17.41
2019-04-06T15:48:11.004Z,17.32
2019-04-06T15:51:14.309Z,17.24
2019-04-06T15:54:09.649Z,17.31
2019-04-06T15:56:45.757Z,17.22
2019-04-06T15:59:34.431Z,17.19
2019-04-06T16:02:21.871Z,17.16
2019-04-06T16:05:23.703Z,17.20
2019-04-06T16:08:21.928Z,17.10
2019-04-06T16:11:13.375Z,16.97
2019-04-06T16:14:01.828Z,17.09
2019-04-06T16:16:45.775Z,16.99
2019-04-06T16:19:33.062Z,16.95
2019-04-06T16:22:19.721Z,16.92
2019-04-06T16:24:54.599Z,16.90
2019-04-06T16:27:52.956Z,16.76
2019-04-06T16:30:41.380Z,16.74
2019-04-06T16:33:28.630Z,16.60
2019-04-06T16:36:09.776Z,16.63
2019-04-06T16:38:56.213Z,16.52
2019-04-06T16:41:39.113Z,16.45
2019-04-06T16:44:30.280Z,16.45
2019-04-06T16:47:21.750Z,16.47
2019-04-06T16:50:19.353Z,16.41
2019-04-06T16:53:03.842Z,16.39
2019-04-06T16:55:42.785Z,16.31
2019-04-06T16:58:30.493Z,16.22
2019-04-06T17:01:18.372Z,16.23
2019-04-06T17:04:01.245Z,16.18
2019-04-06T17:06:55.650Z,16.17
2019-04-06T17:09:43.246Z,16.07
2019-04-06T17:12:23.429Z,15.98
2019-04-06T17:15:20.847Z,15.89
2019-04-06T17:18:21.024Z,15.92
2019-04-06T17:20:59.243Z,15.92
2019-04-06T17:23:40.786Z,15.94
2019-04-06T17:26:25.026Z,15.98
2019-04-06T17:29:11.743Z,15.93
2019-04-06T17:32:06.433Z,15.86
2019-04-06T17:34:55.915Z,15.86
2019-04-06T17:37:45.994Z,15.86
2019-04-06T17:40:37.932Z,15.78
2019-04-06T17:43:26.500Z,15.77
2019-04-06T17:46:27.166Z,15.73
2019-04-06T17:49:30.618Z,15.67
2019-04-06T17:52:19.438Z,15.68
2019-04-06T17:55:03.829Z,15.64
2019-04-06T17:58:10.683Z,15.58
2019-04-06T18:01:11.232Z,15.55
2019-04-06T18:03:52.305Z,15.52
2019-04-06T18:06:30.624Z,15.46
2019-04-06T18:09:12.115Z,15.42
2019-04-06T18:11:50.181Z,15.36
2019-04-06T18:14:19.959Z,15.28
2019-04-06T18:16:49.480Z,15.24
2019-04-06T18:19:19.310Z,15.20
2019-04-06T18:21:49.168Z,15.16
2019-04-06T18:24:19.465Z,14.99
2019-04-06T18:26:49.110Z,14.92
2019-04-06T18:29:18.528Z,14.88
2019-04-06T18:32:03.647Z,14.88
2019-04-06T18:34:33.207Z,14.89
2019-04-06T18:37:26.695Z,14.87
2019-04-06T18:39:57.926Z,14.82
2019-04-06T18:42:27.382Z,14.81
2019-04-06T18:44:56.981Z,14.77
2019-04-06T18:47:26.690Z,14.76
2019-04-06T18:49:56.226Z,14.68
2019-04-06T18:52:27.244Z,14.66
2019-04-06T18:54:56.635Z,14.64
2019-04-06T18:57:26.485Z,14.57
2019-04-06T18:59:56.182Z,14.49
2019-04-06T19:02:25.875Z,14.48
2019-04-06T19:04:55.429Z,14.44
2019-04-06T19:07:24.971Z,14.36
2019-04-06T19:09:54.661Z,14.13
2019-04-06T19:12:24.012Z,14.17
2019-04-06T19:14:53.647Z,14.13
2019-04-06T19:17:23.758Z,14.08
2019-04-06T19:19:53.842Z,13.89
2019-04-06T19:22:23.977Z,13.90
2019-04-06T19:24:53.562Z,13.69
2019-04-06T19:27:22.984Z,13.78
2019-04-06T19:29:52.995Z,13.73
2019-04-06T19:32:22.732Z,13.66
2019-04-06T19:34:52.811Z,13.55
2019-04-06T19:37:22.663Z,13.37
2019-04-06T19:39:52.390Z,13.29
2019-04-06T19:42:23.290Z,13.34
2019-04-06T19:44:52.793Z,13.36
2019-04-06T19:47:22.273Z,13.05
2019-04-06T19:49:51.678Z,12.84
2019-04-06T19:52:21.389Z,12.88
2019-04-06T19:54:50.896Z,12.87
2019-04-06T19:57:20.625Z,12.80
2019-04-06T19:59:50.439Z,12.94
2019-04-06T20:02:19.790Z,12.80
2019-04-06T20:04:49.170Z,12.61
2019-04-06T20:07:18.689Z,12.65
2019-04-06T20:09:48.181Z,12.57
2019-04-06T20:12:17.594Z,12.47
2019-04-06T20:14:47.152Z,12.37
2019-04-06T20:17:16.639Z,12.28
2019-04-06T20:19:46.327Z,12.06
2019-04-06T20:22:15.825Z,11.92
2019-04-06T20:24:45.621Z,11.83
2019-04-06T20:27:15.233Z,11.81
2019-04-06T20:29:45.291Z,11.77
2019-04-06T20:32:14.740Z,11.78
2019-04-06T20:34:44.191Z,11.74
2019-04-06T20:37:13.927Z,11.69
2019-04-06T20:39:43.604Z,11.49
2019-04-06T20:42:13.575Z,11.51
2019-04-06T20:44:43.570Z,11.49
2019-04-06T20:47:13.079Z,11.48
2019-04-06T20:49:42.631Z,11.40
2019-04-06T20:52:12.500Z,11.33
2019-04-06T20:54:41.993Z,11.38
2019-04-06T20:57:11.969Z,11.28
2019-04-06T20:59:41.515Z,11.26
2019-04-06T21:02:11.140Z,11.27
2019-04-06T21:04:41.007Z,11.11
2019-04-06T21:07:11.138Z,11.08
2019-04-06T21:09:40.573Z,11.08
2019-04-06T21:12:10.566Z,11.14
2019-04-06T21:14:40.533Z,11.10
2019-04-06T21:17:10.567Z,11.07
2019-04-06T21:19:40.549Z,11.14
2019-04-06T21:22:10.679Z,11.11
2019-04-06T21:24:40.330Z,11.03
2019-04-06T21:27:09.816Z,11.04
2019-04-06T21:29:39.723Z,11.01
2019-04-06T21:32:09.212Z,11.00
2019-04-06T21:34:38.606Z,10.87
2019-04-06T21:37:08.541Z,10.77
2019-04-06T21:39:38.101Z,10.64
2019-04-06T21:42:07.620Z,10.67
2019-04-06T21:44:37.590Z,10.66
2019-04-06T21:47:08.098Z,10.50
2019-04-06T21:49:37.728Z,10.52
2019-04-06T21:52:07.623Z,10.48
2019-04-06T21:54:37.151Z,10.48
2019-04-06T21:57:07.235Z,10.55
2019-04-06T21:59:37.332Z,10.58
2019-04-06T22:02:07.140Z,10.39
2019-04-06T22:04:36.620Z,10.42
2019-04-06T22:07:07.689Z,10.25
2019-04-06T22:09:37.067Z,10.34
2019-04-06T22:12:07.250Z,10.15
2019-04-06T22:14:36.793Z,10.20
2019-04-06T22:17:07.412Z,10.08
2019-04-06T22:19:36.996Z,10.10
2019-04-06T22:22:06.601Z,10.11
2019-04-06T22:24:36.081Z,10.15
2019-04-06T22:27:05.462Z,9.92
2019-04-06T22:29:35.262Z,10.01
2019-04-06T22:32:04.958Z,10.01
2019-04-06T22:34:39.730Z,10.04
2019-04-06T22:37:06.226Z,9.77
2019-04-06T22:39:35.637Z,9.86
2019-04-06T22:42:05.215Z,9.83
2019-04-06T22:44:34.805Z,9.85
2019-04-06T22:47:04.711Z,9.70
2019-04-06T22:49:34.241Z,9.64
2019-04-06T22:52:04.294Z,9.63
2019-04-06T22:54:34.473Z,9.61
2019-04-06T22:57:04.355Z,9.63
2019-04-06T22:59:33.888Z,9.45
2019-04-06T23:02:04.434Z,9.66
2019-04-06T23:04:47.721Z,9.53
2019-04-06T23:07:13.353Z,9.63
2019-04-06T23:09:42.868Z,9.69
2019-04-06T23:12:12.820Z,9.69
2019-04-06T23:14:43.096Z,9.60
2019-04-06T23:17:12.530Z,9.58
2019-04-06T23:19:42.055Z,9.62
2019-04-06T23:22:11.527Z,9.55
2019-04-06T23:24:41.993Z,9.43
2019-04-06T23:27:11.605Z,9.47
2019-04-06T23:29:41.795Z,9.32
2019-04-06T23:32:11.268Z,9.45
2019-04-06T23:34:40.865Z,9.45
2019-04-06T23:37:10.330Z,9.26
2019-04-06T23:39:40.063Z,9.40
2019-04-06T23:42:10.203Z,9.52
2019-04-06T23:44:39.901Z,9.47
2019-04-06T23:47:09.376Z,9.60
2019-04-06T23:49:38.905Z,9.63
2019-04-06T23:52:09.232Z,9.60
2019-04-06T23:54:38.676Z,9.53
2019-04-06T23:57:08.187Z,9.53
2019-04-06T23:59:37.569Z,9.49
